Time;durP1;ratioP1;P1;durP2;ratioP2;P2;SDS_P1;SDS_P2;PMS_P1;PMS_P2;Temp;Humidity;BMP_temperature;BMP_pressure;BME280_temperature;BME280_humidity;BME280_pressure;Samples;Min_cycle;Max_cycle;Signal;HPM_P1;HPM_P2
2023/05/09 00:00:33;;;;;;;46.70;25.25;;;;;;;;;;5031635;28;20402;-58
2023/05/09 00:02:59;;;;;;;48.05;25.52;;;;;;;;;;5030709;28;20496;-58
2023/05/09 00:05:25;;;;;;;47.40;24.95;;;;;;;;;;5031519;28;20047;-59
2023/05/09 00:07:51;;;;;;;49.40;26.45;;;;;;;;;;5038106;28;20407;-59
2023/05/09 00:10:18;;;;;;;50.78;26.15;;;;;;;;;;5034732;28;20059;-58
2023/05/09 00:12:44;;;;;;;51.00;24.88;;;;;;;;;;5033243;28;20041;-59
2023/05/09 00:15:10;;;;;;;48.90;25.27;;;;;;;;;;5035838;28;20136;-59
2023/05/09 00:17:37;;;;;;;52.58;27.25;;;;;;;;;;5041500;28;20035;-59
2023/05/09 00:20:07;;;;;;;58.45;25.02;;;;;;;;;;5037916;28;20063;-58
2023/05/09 00:22:34;;;;;;;51.88;25.67;;;;;;;;;;5037046;28;20043;-58
2023/05/09 00:25:00;;;;;;;54.20;27.23;;;;;;;;;;5036665;28;20036;-59
2023/05/09 00:27:29;;;;;;;53.35;26.33;;;;;;;;;;5029240;28;20037;-58
2023/05/09 00:29:55;;;;;;;51.30;25.42;;;;;;;;;;5039698;28;20084;-59
2023/05/09 00:32:22;;;;;;;48.72;25.02;;;;;;;;;;5041269;28;20046;-59
2023/05/09 00:34:49;;;;;;;52.28;25.33;;;;;;;;;;5035812;28;20045;-59
2023/05/09 00:37:17;;;;;;;49.35;26.00;;;;;;;;;;5040848;28;20029;-58
2023/05/09 00:39:43;;;;;;;51.58;26.25;;;;;;;;;;5041215;28;20037;-58
2023/05/09 00:42:09;;;;;;;49.38;25.65;;;;;;;;;;5030058;28;20046;-58
2023/05/09 00:44:35;;;;;;;49.42;25.25;;;;;;;;;;5031084;28;20044;-58
2023/05/09 00:47:02;;;;;;;51.42;24.70;;;;;;;;;;5037211;28;20032;-59
2023/05/09 00:49:28;;;;;;;50.72;25.08;;;;;;;;;;5031110;28;20420;-59
2023/05/09 00:51:54;;;;;;;51.17;25.38;;;;;;;;;;5034411;28;20060;-59
2023/05/09 00:54:21;;;;;;;55.25;24.63;;;;;;;;;;5038143;28;20074;-60
2023/05/09 00:56:47;;;;;;;50.13;24.10;;;;;;;;;;5038041;28;20044;-59
2023/05/09 00:59:13;;;;;;;47.50;23.75;;;;;;;;;;5036287;28;20029;-59
2023/05/09 01:01:39;;;;;;;48.97;24.95;;;;;;;;;;5041659;28;20047;-59
2023/05/09 01:04:06;;;;;;;46.10;23.48;;;;;;;;;;5034345;28;20041;-59
2023/05/09 01:06:53;;;;;;;50.97;24.75;;;;;;;;;;5036643;28;20041;-59
2023/05/09 01:09:28;;;;;;;47.78;22.70;;;;;;;;;;5041560;28;20044;-59
2023/05/09 01:12:08;;;;;;;48.08;24.30;;;;;;;;;;5029407;28;20057;-58
2023/05/09 01:14:44;;;;;;;44.90;22.58;;;;;;;;;;5032326;28;20044;-58
2023/05/09 01:17:28;;;;;;;54.63;24.08;;;;;;;;;;5034215;28;20409;-59
2023/05/09 01:20:09;;;;;;;44.58;22.80;;;;;;;;;;5037156;28;20044;-59
2023/05/09 01:22:38;;;;;;;47.90;23.75;;;;;;;;;;5037503;28;20033;-58
2023/05/09 01:25:42;;;;;;;49.13;22.35;;;;;;;;;;5033376;28;20064;-59
2023/05/09 01:28:29;;;;;;;44.80;22.58;;;;;;;;;;5039069;28;20038;-58
2023/05/09 01:30:56;;;;;;;49.70;23.83;;;;;;;;;;5032496;28;20049;-59
2023/05/09 01:33:25;;;;;;;44.90;22.25;;;;;;;;;;5035558;28;21372;-59
2023/05/09 01:35:58;;;;;;;47.63;22.52;;;;;;;;;;5036423;28;20045;-59
2023/05/09 01:38:25;;;;;;;48.42;23.67;;;;;;;;;;5033924;28;20048;-59
2023/05/09 01:40:53;;;;;;;44.78;22.08;;;;;;;;;;5034383;28;20041;-60
2023/05/09 01:43:24;;;;;;;54.10;24.45;;;;;;;;;;5037987;28;20044;-60
2023/05/09 01:45:51;;;;;;;49.72;24.25;;;;;;;;;;5036945;28;20036;-60
2023/05/09 01:48:19;;;;;;;50.35;24.15;;;;;;;;;;5042240;28;21729;-60
2023/05/09 01:50:47;;;;;;;47.92;22.48;;;;;;;;;;5033679;28;20048;-60
2023/05/09 01:53:16;;;;;;;46.83;23.25;;;;;;;;;;5033799;28;20072;-60
2023/05/09 01:55:43;;;;;;;44.17;21.30;;;;;;;;;;5034906;28;20064;-60
2023/05/09 01:58:11;;;;;;;48.15;22.95;;;;;;;;;;5039582;28;20032;-60
2023/05/09 02:00:38;;;;;;;48.10;23.67;;;;;;;;;;5031408;28;20426;-61
2023/05/09 02:03:05;;;;;;;46.72;23.13;;;;;;;;;;5027384;28;20037;-60
2023/05/09 02:05:33;;;;;;;49.45;22.75;;;;;;;;;;5031991;28;20048;-59
2023/05/09 02:08:00;;;;;;;48.13;22.63;;;;;;;;;;5030050;28;20064;-60
2023/05/09 02:10:27;;;;;;;52.75;23.38;;;;;;;;;;5011546;28;20041;-60
2023/05/09 02:12:54;;;;;;;50.45;23.98;;;;;;;;;;5042745;28;20044;-60
2023/05/09 02:15:21;;;;;;;45.45;21.85;;;;;;;;;;5036685;28;20583;-60
2023/05/09 02:17:47;;;;;;;52.80;23.35;;;;;;;;;;5034649;28;20040;-60
2023/05/09 02:20:13;;;;;;;59.22;25.33;;;;;;;;;;5037614;28;20044;-60
2023/05/09 02:22:42;;;;;;;47.33;23.08;;;;;;;;;;5045920;28;20049;-60
2023/05/09 02:25:10;;;;;;;53.67;25.08;;;;;;;;;;5035724;28;20141;-60
2023/05/09 02:27:38;;;;;;;58.13;25.83;;;;;;;;;;5044215;28;20059;-60
2023/05/09 02:30:08;;;;;;;50.85;24.02;;;;;;;;;;5040805;28;20030;-60
2023/05/09 02:32:37;;;;;;;54.75;25.48;;;;;;;;;;5041970;28;20490;-60
2023/05/09 02:35:05;;;;;;;53.97;26.17;;;;;;;;;;5039377;28;20048;-60
2023/05/09 02:37:32;;;;;;;51.72;25.38;;;;;;;;;;5047465;28;20049;-60
2023/05/09 02:40:00;;;;;;;51.08;24.58;;;;;;;;;;5042890;28;20057;-60
2023/05/09 02:42:28;;;;;;;54.38;25.65;;;;;;;;;;5037273;28;20411;-60
2023/05/09 02:44:55;;;;;;;53.78;25.05;;;;;;;;;;5034047;28;20491;-60
2023/05/09 02:47:21;;;;;;;52.40;24.77;;;;;;;;;;5039568;28;20402;-60
2023/05/09 02:49:47;;;;;;;54.10;25.05;;;;;;;;;;5037133;28;20406;-60
2023/05/09 02:52:14;;;;;;;54.00;25.92;;;;;;;;;;5041337;28;20423;-60
2023/05/09 02:54:40;;;;;;;57.33;25.98;;;;;;;;;;5041695;28;20052;-60
2023/05/09 02:57:06;;;;;;;53.03;25.15;;;;;;;;;;5045897;28;20056;-60
2023/05/09 02:59:33;;;;;;;58.38;26.63;;;;;;;;;;5040223;28;20044;-60
2023/05/09 03:02:01;;;;;;;52.83;26.58;;;;;;;;;;5033354;28;20390;-60
2023/05/09 03:04:28;;;;;;;58.95;27.42;;;;;;;;;;5031245;28;20400;-59
2023/05/09 03:06:54;;;;;;;60.00;27.35;;;;;;;;;;5031959;28;20037;-60
2023/05/09 03:09:21;;;;;;;60.92;27.35;;;;;;;;;;5041742;28;20051;-60
2023/05/09 03:11:48;;;;;;;54.80;26.35;;;;;;;;;;5041319;28;20040;-60
2023/05/09 03:14:15;;;;;;;57.72;26.10;;;;;;;;;;5037638;28;20060;-60
2023/05/09 03:16:41;;;;;;;55.55;26.55;;;;;;;;;;5032517;28;20049;-60
2023/05/09 03:19:17;;;;;;;61.47;27.35;;;;;;;;;;5037344;28;20052;-60
2023/05/09 03:21:43;;;;;;;58.97;28.35;;;;;;;;;;5038558;28;20029;-60
2023/05/09 03:24:09;;;;;;;60.65;27.50;;;;;;;;;;5036654;28;20049;-60
2023/05/09 03:26:35;;;;;;;55.05;25.80;;;;;;;;;;5036290;28;20040;-60
2023/05/09 03:29:02;;;;;;;62.70;26.52;;;;;;;;;;5035927;28;20041;-60
2023/05/09 03:31:29;;;;;;;55.42;26.27;;;;;;;;;;5038919;28;20532;-59
2023/05/09 03:33:55;;;;;;;57.10;26.88;;;;;;;;;;5041018;28;20040;-58
2023/05/09 03:36:22;;;;;;;55.35;27.00;;;;;;;;;;5042622;28;20056;-58
2023/05/09 03:38:48;;;;;;;54.55;26.63;;;;;;;;;;5020902;28;20037;-58
2023/05/09 03:41:17;;;;;;;60.30;26.63;;;;;;;;;;5025266;28;20037;-58
2023/05/09 03:43:45;;;;;;;51.55;24.67;;;;;;;;;;5034670;28;20640;-58
2023/05/09 03:46:11;;;;;;;56.72;27.17;;;;;;;;;;5039308;28;20048;-58
2023/05/09 03:48:38;;;;;;;53.50;25.33;;;;;;;;;;5047784;28;20036;-58
2023/05/09 03:51:05;;;;;;;51.88;24.63;;;;;;;;;;5041397;28;20044;-58
2023/05/09 03:53:35;;;;;;;49.03;25.33;;;;;;;;;;5042985;28;20426;-58
2023/05/09 03:56:02;;;;;;;55.60;27.48;;;;;;;;;;5037577;28;20392;-58
2023/05/09 03:58:31;;;;;;;57.97;27.48;;;;;;;;;;5033113;28;20057;-58
2023/05/09 04:00:58;;;;;;;53.50;25.60;;;;;;;;;;5035161;28;20415;-58
2023/05/09 04:03:25;;;;;;;53.00;25.73;;;;;;;;;;5039857;28;20032;-58
2023/05/09 04:05:53;;;;;;;52.30;25.77;;;;;;;;;;5034686;28;20037;-58
2023/05/09 04:08:29;;;;;;;48.65;23.80;;;;;;;;;;5028914;28;20052;-59
2023/05/09 04:10:55;;;;;;;50.03;25.92;;;;;;;;;;5033710;28;20513;-59
2023/05/09 04:13:23;;;;;;;51.75;24.63;;;;;;;;;;5020074;28;20037;-59
2023/05/09 04:15:49;;;;;;;45.38;23.30;;;;;;;;;;5034386;28;20033;-59
2023/05/09 04:18:16;;;;;;;45.70;23.05;;;;;;;;;;5038161;28;20056;-59
2023/05/09 04:20:42;;;;;;;52.33;24.92;;;;;;;;;;5037218;28;20037;-59
2023/05/09 04:23:08;;;;;;;49.58;24.00;;;;;;;;;;5034866;28;20654;-60
2023/05/09 04:25:36;;;;;;;44.83;22.75;;;;;;;;;;5036381;28;20059;-61
2023/05/09 04:28:03;;;;;;;47.67;22.88;;;;;;;;;;5040977;28;20057;-60
2023/05/09 04:30:30;;;;;;;46.80;23.00;;;;;;;;;;5030050;28;20041;-60
2023/05/09 04:32:57;;;;;;;46.92;23.10;;;;;;;;;;5036075;28;20034;-61
2023/05/09 04:35:24;;;;;;;46.47;22.52;;;;;;;;;;5044519;28;20047;-61
2023/05/09 04:37:52;;;;;;;43.83;22.48;;;;;;;;;;5035112;28;20047;-61
2023/05/09 04:40:18;;;;;;;48.05;23.27;;;;;;;;;;5035622;28;20057;-62
2023/05/09 04:42:52;;;;;;;51.75;24.80;;;;;;;;;;5033418;28;20087;-61
2023/05/09 04:45:22;;;;;;;44.45;22.67;;;;;;;;;;5035049;28;20045;-63
2023/05/09 04:47:48;;;;;;;40.95;21.83;;;;;;;;;;5036954;28;20033;-61
2023/05/09 04:50:15;;;;;;;37.35;21.08;;;;;;;;;;5046945;28;20036;-61
2023/05/09 04:52:41;;;;;;;38.38;20.13;;;;;;;;;;5041438;28;20037;-61
2023/05/09 04:55:08;;;;;;;35.97;19.25;;;;;;;;;;5039457;28;20053;-61
2023/05/09 04:57:38;;;;;;;32.75;18.48;;;;;;;;;;5047021;28;20037;-61
2023/05/09 05:00:06;;;;;;;39.20;20.55;;;;;;;;;;5038413;28;20045;-61
2023/05/09 05:02:33;;;;;;;39.38;21.98;;;;;;;;;;5032185;28;20041;-61
2023/05/09 05:04:59;;;;;;;40.17;22.10;;;;;;;;;;5034306;28;20044;-61
2023/05/09 05:07:25;;;;;;;35.92;21.25;;;;;;;;;;5037642;28;20048;-61
2023/05/09 05:09:52;;;;;;;36.22;20.35;;;;;;;;;;5041009;28;20036;-61
2023/05/09 05:12:18;;;;;;;32.95;17.05;;;;;;;;;;5033397;28;20049;-61
2023/05/09 05:14:44;;;;;;;35.08;17.63;;;;;;;;;;5041764;28;20387;-60
2023/05/09 05:17:18;;;;;;;26.77;15.73;;;;;;;;;;5037455;28;20068;-61
2023/05/09 05:19:45;;;;;;;33.75;18.80;;;;;;;;;;5036486;28;20036;-61
2023/05/09 05:22:12;;;;;;;36.65;20.67;;;;;;;;;;5041806;28;20668;-61
2023/05/09 05:24:41;;;;;;;39.20;20.90;;;;;;;;;;5043853;28;20040;-61
2023/05/09 05:27:07;;;;;;;38.42;21.00;;;;;;;;;;5036251;28;20287;-61
2023/05/09 05:29:34;;;;;;;35.15;19.23;;;;;;;;;;5044516;28;20041;-61
2023/05/09 05:32:00;;;;;;;37.25;20.83;;;;;;;;;;5041064;28;20049;-61
2023/05/09 05:34:26;;;;;;;40.97;23.20;;;;;;;;;;5037896;28;20045;-60
2023/05/09 05:36:52;;;;;;;52.63;26.25;;;;;;;;;;5046096;28;20036;-60
2023/05/09 05:39:18;;;;;;;51.97;26.10;;;;;;;;;;5006562;28;20119;-59
2023/05/09 05:41:44;;;;;;;54.83;26.35;;;;;;;;;;5041751;28;20025;-59
2023/05/09 05:44:11;;;;;;;53.55;26.35;;;;;;;;;;5038146;28;20447;-59
2023/05/09 05:46:37;;;;;;;55.33;26.98;;;;;;;;;;5043306;28;20068;-60
2023/05/09 05:49:04;;;;;;;59.13;28.17;;;;;;;;;;5038347;28;20521;-60
2023/05/09 05:51:32;;;;;;;61.60;28.60;;;;;;;;;;5046038;28;20049;-60
2023/05/09 05:54:02;;;;;;;;;;;;;;;;;;5047018;28;20051;-61
2023/05/09 05:56:28;;;;;;;58.50;26.90;;;;;;;;;;5042099;28;19919;-60
2023/05/09 05:58:55;;;;;;;59.15;28.08;;;;;;;;;;5041787;28;20475;-60
2023/05/09 06:01:22;;;;;;;59.70;27.85;;;;;;;;;;5047194;28;20053;-60
2023/05/09 06:03:53;;;;;;;53.50;27.08;;;;;;;;;;5044867;28;20029;-61
2023/05/09 06:06:25;;;;;;;57.72;27.15;;;;;;;;;;5043926;28;20037;-60
2023/05/09 06:08:51;;;;;;;56.25;27.30;;;;;;;;;;5046093;28;20526;-60
2023/05/09 06:11:18;;;;;;;51.15;25.85;;;;;;;;;;5038721;28;20045;-60
2023/05/09 06:13:44;;;;;;;55.05;27.13;;;;;;;;;;5040326;28;20438;-60
2023/05/09 06:16:11;;;;;;;50.95;25.20;;;;;;;;;;5044505;28;20048;-60
2023/05/09 06:18:39;;;;;;;55.42;26.08;;;;;;;;;;5015351;28;20053;-60
2023/05/09 06:21:06;;;;;;;54.08;26.35;;;;;;;;;;5040905;28;20037;-60
2023/05/09 06:23:32;;;;;;;50.05;23.27;;;;;;;;;;5029105;28;20063;-60
2023/05/09 06:25:58;;;;;;;45.78;24.15;;;;;;;;;;5045776;28;20548;-60
2023/05/09 06:28:25;;;;;;;45.38;24.40;;;;;;;;;;5049340;28;20064;-60
2023/05/09 06:30:52;;;;;;;43.80;22.08;;;;;;;;;;5046672;28;20044;-60
2023/05/09 06:33:18;;;;;;;44.63;23.65;;;;;;;;;;5045438;28;20032;-60
2023/05/09 06:35:44;;;;;;;42.47;22.65;;;;;;;;;;5045182;28;20039;-60
2023/05/09 06:38:10;;;;;;;47.72;23.75;;;;;;;;;;5047270;28;20129;-61
2023/05/09 06:40:36;;;;;;;44.20;23.25;;;;;;;;;;5048289;28;20033;-60
2023/05/09 06:43:02;;;;;;;48.05;23.48;;;;;;;;;;5039596;28;20038;-60
2023/05/09 06:45:29;;;;;;;38.05;21.05;;;;;;;;;;5042987;28;20033;-60
2023/05/09 06:47:56;;;;;;;41.35;21.65;;;;;;;;;;5049374;28;20049;-61
2023/05/09 06:50:22;;;;;;;43.40;22.25;;;;;;;;;;5042380;28;20033;-60
2023/05/09 06:52:48;;;;;;;39.47;22.30;;;;;;;;;;5039186;28;20042;-61
2023/05/09 06:55:14;;;;;;;40.55;20.75;;;;;;;;;;5041484;28;20498;-61
2023/05/09 06:57:41;;;;;;;44.22;22.02;;;;;;;;;;5040038;28;20407;-60
2023/05/09 07:00:08;;;;;;;41.45;21.42;;;;;;;;;;5041480;28;20426;-61
2023/05/09 07:02:34;;;;;;;40.80;22.30;;;;;;;;;;5044348;28;20502;-60
2023/05/09 07:05:00;;;;;;;36.25;20.52;;;;;;;;;;5036546;28;20388;-60
2023/05/09 07:07:26;;;;;;;35.75;20.42;;;;;;;;;;5038373;28;20044;-60
2023/05/09 07:09:52;;;;;;;36.80;20.20;;;;;;;;;;5050091;28;20051;-61
2023/05/09 07:12:19;;;;;;;37.97;19.52;;;;;;;;;;5039767;28;20033;-61
2023/05/09 07:14:45;;;;;;;36.60;19.27;;;;;;;;;;5038616;28;20041;-60
2023/05/09 07:17:11;;;;;;;35.50;20.52;;;;;;;;;;5049055;28;20041;-60
2023/05/09 07:19:37;;;;;;;39.50;20.60;;;;;;;;;;5043392;28;20029;-61
2023/05/09 07:22:03;;;;;;;34.15;19.23;;;;;;;;;;5040909;28;20046;-61
2023/05/09 07:24:29;;;;;;;38.28;18.85;;;;;;;;;;5047659;28;20033;-60
2023/05/09 07:26:55;;;;;;;36.50;20.80;;;;;;;;;;5049619;28;20035;-61
2023/05/09 07:29:22;;;;;;;39.30;19.13;;;;;;;;;;5051026;28;20056;-61
2023/05/09 07:31:48;;;;;;;35.05;20.00;;;;;;;;;;5039153;28;20049;-61
2023/05/09 07:34:15;;;;;;;35.55;19.40;;;;;;;;;;5043591;28;20044;-61
2023/05/09 07:36:41;;;;;;;37.13;19.30;;;;;;;;;;5049003;28;20048;-61
2023/05/09 07:39:08;;;;;;;35.05;19.45;;;;;;;;;;5042989;28;20068;-61
2023/05/09 07:41:34;;;;;;;35.50;19.27;;;;;;;;;;5046570;28;20037;-60
2023/05/09 07:44:00;;;;;;;35.03;19.48;;;;;;;;;;5041742;28;20053;-60
2023/05/09 07:46:26;;;;;;;36.17;20.00;;;;;;;;;;5042472;28;20064;-61
2023/05/09 07:48:52;;;;;;;34.83;19.73;;;;;;;;;;5045776;28;20029;-60
2023/05/09 07:51:18;;;;;;;38.05;20.10;;;;;;;;;;5041545;28;20045;-61
2023/05/09 07:53:45;;;;;;;35.88;20.60;;;;;;;;;;5038436;28;20785;-61
2023/05/09 07:56:12;;;;;;;36.70;19.42;;;;;;;;;;5045328;28;20049;-61
2023/05/09 07:58:38;;;;;;;35.45;19.65;;;;;;;;;;5045309;28;20037;-61
2023/05/09 08:01:04;;;;;;;38.40;20.25;;;;;;;;;;5043716;28;20483;-61
2023/05/09 08:03:30;;;;;;;36.38;20.30;;;;;;;;;;5043449;28;20032;-61
2023/05/09 08:05:56;;;;;;;34.15;20.23;;;;;;;;;;5045351;28;20053;-61
2023/05/09 08:08:23;;;;;;;35.53;20.02;;;;;;;;;;5042706;28;20462;-61
2023/05/09 08:10:49;;;;;;;36.20;19.95;;;;;;;;;;5037374;28;20041;-61
2023/05/09 08:13:17;;;;;;;39.95;21.30;;;;;;;;;;5043310;28;20399;-59
2023/05/09 08:15:43;;;;;;;36.58;20.00;;;;;;;;;;5041715;28;20041;-60
2023/05/09 08:18:09;;;;;;;36.00;19.90;;;;;;;;;;5039378;28;20033;-60
2023/05/09 08:20:36;;;;;;;34.42;19.25;;;;;;;;;;5039073;28;20047;-60
2023/05/09 08:23:02;;;;;;;33.03;19.02;;;;;;;;;;5047220;28;20045;-60
2023/05/09 08:25:28;;;;;;;36.92;19.92;;;;;;;;;;5047390;28;20037;-60
2023/05/09 08:27:54;;;;;;;40.65;21.17;;;;;;;;;;5037915;28;20051;-60
2023/05/09 08:30:20;;;;;;;38.47;21.63;;;;;;;;;;5045279;28;20431;-61
2023/05/09 08:32:47;;;;;;;40.42;22.05;;;;;;;;;;5047076;28;20045;-60
2023/05/09 08:35:13;;;;;;;34.40;19.90;;;;;;;;;;5043960;28;20418;-60
2023/05/09 08:37:40;;;;;;;40.97;22.40;;;;;;;;;;5044634;28;20391;-60
2023/05/09 08:40:07;;;;;;;41.42;20.92;;;;;;;;;;5037584;28;20479;-60
2023/05/09 08:42:35;;;;;;;40.70;20.40;;;;;;;;;;5041707;28;20032;-60
2023/05/09 08:45:26;;;;;;;39.03;21.60;;;;;;;;;;5042173;28;20034;-59
2023/05/09 08:47:52;;;;;;;43.83;21.73;;;;;;;;;;5047312;28;20375;-60
2023/05/09 08:50:19;;;;;;;43.40;21.70;;;;;;;;;;5043092;28;20045;-60
2023/05/09 08:52:46;;;;;;;39.47;20.92;;;;;;;;;;5040990;28;20203;-60
2023/05/09 08:55:13;;;;;;;41.22;20.92;;;;;;;;;;5043870;28;20052;-60
2023/05/09 08:57:40;;;;;;;35.05;18.40;;;;;;;;;;5041646;28;20041;-61
2023/05/09 09:00:10;;;;;;;34.80;18.40;;;;;;;;;;5039976;28;20045;-61
2023/05/09 09:02:39;;;;;;;34.90;18.05;;;;;;;;;;5044034;28;20048;-60
2023/05/09 09:05:06;;;;;;;34.70;18.10;;;;;;;;;;5042234;28;20049;-61
2023/05/09 09:07:35;;;;;;;32.13;17.40;;;;;;;;;;5038677;28;20052;-60
2023/05/09 09:10:03;;;;;;;34.13;19.10;;;;;;;;;;5044501;28;20029;-60
2023/05/09 09:12:30;;;;;;;32.63;16.40;;;;;;;;;;5040304;28;20403;-60
2023/05/09 09:15:03;;;;;;;28.92;16.85;;;;;;;;;;5035897;28;20041;-60
2023/05/09 09:17:32;;;;;;;25.42;15.23;;;;;;;;;;5031765;28;20037;-60
2023/05/09 09:20:04;;;;;;;26.65;14.75;;;;;;;;;;5043097;28;20032;-61
2023/05/09 09:22:34;;;;;;;25.00;15.38;;;;;;;;;;5045002;28;20035;-60
2023/05/09 09:25:01;;;;;;;26.02;15.15;;;;;;;;;;5043338;28;20039;-60
2023/05/09 09:27:27;;;;;;;25.35;14.23;;;;;;;;;;5042861;28;20029;-61
2023/05/09 09:29:53;;;;;;;22.98;14.85;;;;;;;;;;5039516;28;20033;-60
2023/05/09 09:32:31;;;;;;;22.98;12.75;;;;;;;;;;5042599;28;20402;-61
2023/05/09 09:35:07;;;;;;;19.63;12.63;;;;;;;;;;5040805;28;20041;-60
2023/05/09 09:37:44;;;;;;;23.25;12.10;;;;;;;;;;5041925;28;20045;-60
2023/05/09 09:40:11;;;;;;;18.10;12.00;;;;;;;;;;5042440;28;20056;-60
2023/05/09 09:42:45;;;;;;;17.00;11.13;;;;;;;;;;5048734;28;20036;-60
2023/05/09 09:45:15;;;;;;;16.98;10.88;;;;;;;;;;5042364;28;20029;-60
2023/05/09 09:47:42;;;;;;;14.15;9.73;;;;;;;;;;5049663;28;20040;-60
2023/05/09 09:50:13;;;;;;;13.75;9.20;;;;;;;;;;5037596;28;20050;-60
2023/05/09 09:52:43;;;;;;;13.82;9.10;;;;;;;;;;5045714;28;20052;-60
2023/05/09 09:55:10;;;;;;;11.63;8.73;;;;;;;;;;5039823;28;20041;-61
2023/05/09 09:57:38;;;;;;;14.80;9.25;;;;;;;;;;5037951;28;20410;-61
2023/05/09 10:00:06;;;;;;;12.40;8.43;;;;;;;;;;5039134;28;20037;-62
2023/05/09 10:02:33;;;;;;;11.13;7.50;;;;;;;;;;5044818;28;20064;-61
2023/05/09 10:05:06;;;;;;;10.68;7.30;;;;;;;;;;5042645;28;20029;-62
2023/05/09 10:07:37;;;;;;;9.77;7.13;;;;;;;;;;5040408;28;20064;-62
2023/05/09 10:10:05;;;;;;;11.88;7.38;;;;;;;;;;5046157;28;20052;-62
2023/05/09 10:12:36;;;;;;;9.77;7.10;;;;;;;;;;5047879;28;20037;-62
2023/05/09 10:15:09;;;;;;;11.00;6.85;;;;;;;;;;5036349;28;20041;-62
2023/05/09 10:17:35;;;;;;;9.00;6.20;;;;;;;;;;5038950;28;20044;-61
2023/05/09 10:20:04;;;;;;;10.70;7.07;;;;;;;;;;5037400;28;20033;-61
2023/05/09 10:22:32;;;;;;;8.35;6.32;;;;;;;;;;5042083;28;20040;-61
2023/05/09 10:25:05;;;;;;;8.38;6.47;;;;;;;;;;5043182;28;20060;-61
2023/05/09 10:27:35;;;;;;;9.75;6.40;;;;;;;;;;5031715;28;20049;-61
2023/05/09 10:30:21;;;;;;;8.05;5.65;;;;;;;;;;5045632;28;20032;-61
2023/05/09 10:33:09;;;;;;;7.93;6.13;;;;;;;;;;5046813;28;20057;-61
2023/05/09 10:35:40;;;;;;;10.27;5.90;;;;;;;;;;5045416;28;20075;-61
2023/05/09 10:38:06;;;;;;;8.70;6.25;;;;;;;;;;5044528;28;20414;-60
2023/05/09 10:40:33;;;;;;;7.80;6.30;;;;;;;;;;5049269;28;20044;-60
2023/05/09 10:42:59;;;;;;;9.55;6.05;;;;;;;;;;5049774;28;20025;-61
2023/05/09 10:45:26;;;;;;;8.55;6.55;;;;;;;;;;5041929;28;20033;-60
2023/05/09 10:47:55;;;;;;;7.32;5.80;;;;;;;;;;5048001;28;20052;-60
2023/05/09 10:50:21;;;;;;;;;;;;;;;;;;5044749;28;20048;-60
2023/05/09 10:53:16;;;;;;;5.85;4.68;;;;;;;;;;5052441;28;19916;-59
2023/05/09 10:55:45;;;;;;;6.43;5.00;;;;;;;;;;5045494;28;20045;-60
2023/05/09 10:58:23;;;;;;;6.63;5.25;;;;;;;;;;5040695;28;20523;-60
2023/05/09 11:00:51;;;;;;;5.65;4.43;;;;;;;;;;5042648;28;20379;-60
2023/05/09 11:03:18;;;;;;;5.22;4.05;;;;;;;;;;5037637;28;20048;-60
2023/05/09 11:05:46;;;;;;;5.90;4.18;;;;;;;;;;5045168;28;20037;-60
2023/05/09 11:08:18;;;;;;;5.85;4.10;;;;;;;;;;5042541;28;20041;-60
2023/05/09 11:10:44;;;;;;;6.03;4.07;;;;;;;;;;5042161;28;20033;-60
2023/05/09 11:13:10;;;;;;;5.28;3.78;;;;;;;;;;5034896;28;20438;-59
2023/05/09 11:15:58;;;;;;;4.22;3.63;;;;;;;;;;5036654;28;20474;-61
2023/05/09 11:18:24;;;;;;;4.15;3.38;;;;;;;;;;5037166;28;20478;-60
2023/05/09 11:20:50;;;;;;;3.83;3.40;;;;;;;;;;5041999;28;20041;-61
2023/05/09 11:23:20;;;;;;;3.65;2.90;;;;;;;;;;5049200;28;20045;-60
2023/05/09 11:25:48;;;;;;;5.82;3.60;;;;;;;;;;5046073;28;20414;-61
2023/05/09 11:28:31;;;;;;;4.80;3.50;;;;;;;;;;5044279;28;20049;-61
2023/05/09 11:31:11;;;;;;;4.13;3.65;;;;;;;;;;5044466;28;20040;-61
2023/05/09 11:33:39;;;;;;;3.63;3.20;;;;;;;;;;5039678;28;20033;-60
2023/05/09 11:36:28;;;;;;;4.80;3.50;;;;;;;;;;5044249;28;20423;-61
2023/05/09 11:39:12;;;;;;;5.80;4.30;;;;;;;;;;5041077;28;20382;-59
2023/05/09 11:41:45;;;;;;;4.03;3.60;;;;;;;;;;5039899;28;20041;-59
2023/05/09 11:44:20;;;;;;;5.35;4.45;;;;;;;;;;5043511;28;20041;-59
2023/05/09 11:46:48;;;;;;;4.65;3.70;;;;;;;;;;5037214;28;20051;-59
2023/05/09 11:49:15;;;;;;;5.85;3.60;;;;;;;;;;5042618;28;20036;-59
2023/05/09 11:51:41;;;;;;;4.20;3.63;;;;;;;;;;5042418;28;20041;-59
2023/05/09 11:54:09;;;;;;;3.63;3.20;;;;;;;;;;5039685;28;20037;-59
2023/05/09 11:56:38;;;;;;;7.57;3.53;;;;;;;;;;5039249;28;20395;-59
2023/05/09 11:59:06;;;;;;;4.72;3.42;;;;;;;;;;5041289;28;20038;-59
2023/05/09 12:01:32;;;;;;;3.80;3.30;;;;;;;;;;5039260;28;20035;-58
2023/05/09 12:03:58;;;;;;;5.35;3.50;;;;;;;;;;5039804;28;20712;-58
2023/05/09 12:06:25;;;;;;;4.82;3.50;;;;;;;;;;5040139;28;20347;-58
2023/05/09 12:08:53;;;;;;;4.50;3.38;;;;;;;;;;5037214;28;20045;-58
2023/05/09 12:11:20;;;;;;;;;;;;;;;;;;5040711;28;20398;-58
2023/05/09 12:13:48;;;;;;;9.25;3.10;;;;;;;;;;5045911;28;19948;-60
2023/05/09 12:16:16;;;;;;;5.03;2.73;;;;;;;;;;5044328;28;20383;-63
2023/05/09 12:18:50;;;;;;;3.50;2.95;;;;;;;;;;5047412;28;20286;-60
2023/05/09 12:21:17;;;;;;;3.47;2.88;;;;;;;;;;5046749;28;20044;-62
2023/05/09 12:23:45;;;;;;;3.20;2.90;;;;;;;;;;5045731;28;20378;-62
2023/05/09 12:26:12;;;;;;;3.22;2.92;;;;;;;;;;5039492;28;20033;-62
2023/05/09 12:28:39;;;;;;;3.70;3.03;;;;;;;;;;5043795;28;20040;-62
2023/05/09 12:31:06;;;;;;;3.50;2.95;;;;;;;;;;5042914;28;20052;-62
2023/05/09 12:33:32;;;;;;;3.78;2.78;;;;;;;;;;5047872;28;20050;-62
2023/05/09 12:36:07;;;;;;;4.05;3.13;;;;;;;;;;5046149;28;20041;-62
2023/05/09 12:38:33;;;;;;;4.55;3.15;;;;;;;;;;5044970;28;20415;-62
2023/05/09 12:41:03;;;;;;;4.15;2.67;;;;;;;;;;5046286;28;20364;-62
2023/05/09 12:43:35;;;;;;;3.95;2.70;;;;;;;;;;5051374;28;20028;-62
2023/05/09 12:46:02;;;;;;;5.68;2.78;;;;;;;;;;5056902;28;20029;-63
2023/05/09 12:48:30;;;;;;;4.47;2.92;;;;;;;;;;5042170;28;20033;-61
2023/05/09 12:51:01;;;;;;;4.83;2.97;;;;;;;;;;5046198;28;20037;-62
2023/05/09 12:53:30;;;;;;;7.72;3.05;;;;;;;;;;5046996;28;20043;-63
2023/05/09 12:56:03;;;;;;;3.08;2.67;;;;;;;;;;5044721;28;20053;-61
2023/05/09 12:58:31;;;;;;;3.20;2.70;;;;;;;;;;5036748;28;20037;-62
2023/05/09 13:00:58;;;;;;;3.10;2.80;;;;;;;;;;5044224;28;20024;-61
2023/05/09 13:03:30;;;;;;;2.92;2.63;;;;;;;;;;5037436;28;20032;-61
2023/05/09 13:05:58;;;;;;;3.65;2.60;;;;;;;;;;5038569;28;20037;-62
2023/05/09 13:08:25;;;;;;;3.17;2.88;;;;;;;;;;5035411;28;20028;-62
2023/05/09 13:10:52;;;;;;;3.38;2.58;;;;;;;;;;5039190;28;20510;-62
2023/05/09 13:13:18;;;;;;;5.60;2.60;;;;;;;;;;5044843;28;20051;-61
2023/05/09 13:15:45;;;;;;;5.20;3.00;;;;;;;;;;5041827;28;20049;-62
2023/05/09 13:18:12;;;;;;;4.30;2.75;;;;;;;;;;5047144;28;20053;-62
2023/05/09 13:20:38;;;;;;;3.08;2.70;;;;;;;;;;5046655;28;20029;-63
2023/05/09 13:23:04;;;;;;;3.75;2.63;;;;;;;;;;5045338;28;20036;-62
2023/05/09 13:25:30;;;;;;;3.65;2.70;;;;;;;;;;5047054;28;20028;-62
2023/05/09 13:27:57;;;;;;;4.88;2.58;;;;;;;;;;5046916;28;20519;-62
2023/05/09 13:30:23;;;;;;;4.00;2.85;;;;;;;;;;5044547;28;20053;-62
2023/05/09 13:32:50;;;;;;;2.92;2.63;;;;;;;;;;5037859;28;20041;-62
2023/05/09 13:35:16;;;;;;;4.38;2.72;;;;;;;;;;5047482;28;20033;-62
2023/05/09 13:37:43;;;;;;;4.82;2.80;;;;;;;;;;5049787;28;20040;-62
2023/05/09 13:40:09;;;;;;;3.13;2.60;;;;;;;;;;5043330;28;20048;-62
2023/05/09 13:42:36;;;;;;;3.10;2.80;;;;;;;;;;5044488;28;20029;-62
2023/05/09 13:45:02;;;;;;;3.55;2.67;;;;;;;;;;5040865;28;20030;-59
2023/05/09 13:47:28;;;;;;;3.75;2.70;;;;;;;;;;5045758;28;20542;-59
2023/05/09 13:49:54;;;;;;;6.47;3.78;;;;;;;;;;5043229;28;20029;-59
2023/05/09 13:52:20;;;;;;;3.15;2.85;;;;;;;;;;5045907;28;20052;-59
2023/05/09 13:54:47;;;;;;;5.60;2.90;;;;;;;;;;5039278;28;20037;-59
2023/05/09 13:57:13;;;;;;;4.88;2.67;;;;;;;;;;5041674;28;20049;-59
2023/05/09 13:59:42;;;;;;;3.22;2.92;;;;;;;;;;5041076;28;20398;-59
2023/05/09 14:02:09;;;;;;;8.90;3.20;;;;;;;;;;5042688;28;20379;-59
2023/05/09 14:04:36;;;;;;;3.30;2.60;;;;;;;;;;5040905;28;20506;-59
2023/05/09 14:07:02;;;;;;;4.93;2.70;;;;;;;;;;5041728;28;20033;-60
2023/05/09 14:09:28;;;;;;;4.88;3.05;;;;;;;;;;5042724;28;20040;-59
2023/05/09 14:11:55;;;;;;;3.83;2.75;;;;;;;;;;5051277;28;20372;-59
2023/05/09 14:14:23;;;;;;;2.78;2.47;;;;;;;;;;5050059;28;20048;-60
2023/05/09 14:16:50;;;;;;;3.15;2.53;;;;;;;;;;5047203;28;20033;-59
2023/05/09 14:19:16;;;;;;;3.30;2.80;;;;;;;;;;5051161;28;20057;-59
2023/05/09 14:21:43;;;;;;;3.00;2.70;;;;;;;;;;5050484;28;20041;-59
2023/05/09 14:24:11;;;;;;;4.85;3.30;;;;;;;;;;5052428;28;20056;-60
2023/05/09 14:26:37;;;;;;;4.78;3.15;;;;;;;;;;5050268;28;20417;-60
2023/05/09 14:29:04;;;;;;;6.00;3.22;;;;;;;;;;5050909;28;20063;-60
2023/05/09 14:31:31;;;;;;;4.00;3.10;;;;;;;;;;5048431;28;20096;-61